sensor_id;sensor_type;location;lat;lon;timestamp;P1;durP1;ratioP1;P2;durP2;ratioP2
27225;SDS011;14732;51.074;3.788;2023-02-28T00:00:06;10.55;;;5.63;;
27225;SDS011;14732;51.074;3.788;2023-02-28T00:02:44;10.95;;;5.57;;
27225;SDS011;14732;51.074;3.788;2023-02-28T00:05:11;9.68;;;5.95;;
27225;SDS011;14732;51.074;3.788;2023-02-28T00:07:38;8.45;;;5.80;;
27225;SDS011;14732;51.074;3.788;2023-02-28T00:10:05;8.23;;;5.55;;
27225;SDS011;14732;51.074;3.788;2023-02-28T00:12:33;7.45;;;5.53;;
27225;SDS011;14732;51.074;3.788;2023-02-28T00:14:59;9.77;;;6.32;;
27225;SDS011;14732;51.074;3.788;2023-02-28T00:17:25;10.98;;;5.65;;
27225;SDS011;14732;51.074;3.788;2023-02-28T00:19:51;12.10;;;5.65;;
27225;SDS011;14732;51.074;3.788;2023-02-28T00:22:18;9.43;;;5.65;;
27225;SDS011;14732;51.074;3.788;2023-02-28T00:24:45;9.40;;;6.05;;
27225;SDS011;14732;51.074;3.788;2023-02-28T00:27:12;12.75;;;5.97;;
27225;SDS011;14732;51.074;3.788;2023-02-28T00:29:38;9.27;;;5.88;;
27225;SDS011;14732;51.074;3.788;2023-02-28T00:32:04;9.30;;;5.82;;
27225;SDS011;14732;51.074;3.788;2023-02-28T00:34:31;10.85;;;6.28;;
27225;SDS011;14732;51.074;3.788;2023-02-28T00:37:02;11.10;;;6.57;;
27225;SDS011;14732;51.074;3.788;2023-02-28T00:39:29;9.73;;;6.78;;
27225;SDS011;14732;51.074;3.788;2023-02-28T00:41:55;10.90;;;6.70;;
27225;SDS011;14732;51.074;3.788;2023-02-28T00:44:21;9.25;;;7.07;;
27225;SDS011;14732;51.074;3.788;2023-02-28T00:46:46;10.63;;;6.63;;
27225;SDS011;14732;51.074;3.788;2023-02-28T00:49:12;11.60;;;7.00;;
27225;SDS011;14732;51.074;3.788;2023-02-28T00:51:38;10.82;;;6.68;;
27225;SDS011;14732;51.074;3.788;2023-02-28T00:54:03;10.88;;;7.60;;
27225;SDS011;14732;51.074;3.788;2023-02-28T00:56:29;13.00;;;7.28;;
27225;SDS011;14732;51.074;3.788;2023-02-28T00:58:55;12.73;;;7.13;;
27225;SDS011;14732;51.074;3.788;2023-02-28T01:01:20;14.63;;;6.78;;
27225;SDS011;14732;51.074;3.788;2023-02-28T01:03:46;10.45;;;6.82;;
27225;SDS011;14732;51.074;3.788;2023-02-28T01:06:12;10.25;;;6.57;;
27225;SDS011;14732;51.074;3.788;2023-02-28T01:08:37;10.70;;;7.22;;
27225;SDS011;14732;51.074;3.788;2023-02-28T01:11:07;9.05;;;6.60;;
27225;SDS011;14732;51.074;3.788;2023-02-28T01:13:34;9.50;;;5.90;;
27225;SDS011;14732;51.074;3.788;2023-02-28T01:16:00;11.55;;;6.72;;
27225;SDS011;14732;51.074;3.788;2023-02-28T01:18:25;10.00;;;6.72;;
27225;SDS011;14732;51.074;3.788;2023-02-28T01:20:51;10.85;;;6.32;;
27225;SDS011;14732;51.074;3.788;2023-02-28T01:23:18;9.80;;;6.30;;
27225;SDS011;14732;51.074;3.788;2023-02-28T01:25:45;8.13;;;6.43;;
27225;SDS011;14732;51.074;3.788;2023-02-28T01:28:10;13.15;;;6.93;;
27225;SDS011;14732;51.074;3.788;2023-02-28T01:30:36;11.25;;;7.32;;
27225;SDS011;14732;51.074;3.788;2023-02-28T01:33:02;11.75;;;7.30;;
27225;SDS011;14732;51.074;3.788;2023-02-28T01:35:28;11.57;;;7.10;;
27225;SDS011;14732;51.074;3.788;2023-02-28T01:37:53;9.70;;;6.30;;
27225;SDS011;14732;51.074;3.788;2023-02-28T01:40:19;10.27;;;6.72;;
27225;SDS011;14732;51.074;3.788;2023-02-28T01:42:45;14.93;;;6.63;;
27225;SDS011;14732;51.074;3.788;2023-02-28T01:45:27;9.73;;;6.55;;
27225;SDS011;14732;51.074;3.788;2023-02-28T01:48:00;9.52;;;6.28;;
27225;SDS011;14732;51.074;3.788;2023-02-28T01:50:31;10.05;;;6.43;;
27225;SDS011;14732;51.074;3.788;2023-02-28T01:53:02;11.52;;;6.15;;
27225;SDS011;14732;51.074;3.788;2023-02-28T01:55:31;9.57;;;5.88;;
27225;SDS011;14732;51.074;3.788;2023-02-28T01:57:59;11.77;;;6.68;;
27225;SDS011;14732;51.074;3.788;2023-02-28T02:00:27;8.57;;;6.20;;
27225;SDS011;14732;51.074;3.788;2023-02-28T02:02:59;8.82;;;6.03;;
27225;SDS011;14732;51.074;3.788;2023-02-28T02:05:30;9.88;;;5.90;;
27225;SDS011;14732;51.074;3.788;2023-02-28T02:07:56;7.65;;;5.85;;
27225;SDS011;14732;51.074;3.788;2023-02-28T02:10:50;10.07;;;6.45;;
27225;SDS011;14732;51.074;3.788;2023-02-28T02:13:25;8.93;;;6.45;;
27225;SDS011;14732;51.074;3.788;2023-02-28T02:19:03;9.27;;;6.53;;
27225;SDS011;14732;51.074;3.788;2023-02-28T02:27:48;12.27;;;6.22;;
27225;SDS011;14732;51.074;3.788;2023-02-28T02:33:18;16.02;;;6.93;;
27225;SDS011;14732;51.074;3.788;2023-02-28T02:36:13;14.15;;;6.93;;
27225;SDS011;14732;51.074;3.788;2023-02-28T02:39:05;8.45;;;6.45;;
27225;SDS011;14732;51.074;3.788;2023-02-28T02:42:00;10.95;;;6.53;;
27225;SDS011;14732;51.074;3.788;2023-02-28T02:44:27;10.02;;;6.10;;
27225;SDS011;14732;51.074;3.788;2023-02-28T02:47:09;12.18;;;7.10;;
27225;SDS011;14732;51.074;3.788;2023-02-28T02:49:38;11.70;;;6.85;;
27225;SDS011;14732;51.074;3.788;2023-02-28T02:52:09;9.50;;;6.53;;
27225;SDS011;14732;51.074;3.788;2023-02-28T02:54:38;11.27;;;6.50;;
27225;SDS011;14732;51.074;3.788;2023-02-28T02:57:09;13.13;;;6.85;;
27225;SDS011;14732;51.074;3.788;2023-02-28T02:59:57;11.20;;;6.75;;
27225;SDS011;14732;51.074;3.788;2023-02-28T03:02:25;9.95;;;6.40;;
27225;SDS011;14732;51.074;3.788;2023-02-28T03:04:55;10.45;;;6.78;;
27225;SDS011;14732;51.074;3.788;2023-02-28T03:07:26;10.55;;;6.38;;
27225;SDS011;14732;51.074;3.788;2023-02-28T03:09:53;10.35;;;6.65;;
27225;SDS011;14732;51.074;3.788;2023-02-28T03:12:21;14.50;;;6.82;;
27225;SDS011;14732;51.074;3.788;2023-02-28T03:18:24;10.77;;;7.13;;
27225;SDS011;14732;51.074;3.788;2023-02-28T03:21:08;11.23;;;6.65;;
27225;SDS011;14732;51.074;3.788;2023-02-28T03:23:44;13.18;;;6.78;;
27225;SDS011;14732;51.074;3.788;2023-02-28T03:26:51;11.35;;;6.72;;
27225;SDS011;14732;51.074;3.788;2023-02-28T03:29:34;12.25;;;7.10;;
27225;SDS011;14732;51.074;3.788;2023-02-28T03:32:05;10.20;;;7.00;;
27225;SDS011;14732;51.074;3.788;2023-02-28T03:34:47;13.60;;;7.70;;
27225;SDS011;14732;51.074;3.788;2023-02-28T03:37:19;15.40;;;7.80;;
27225;SDS011;14732;51.074;3.788;2023-02-28T03:39:49;12.75;;;7.85;;
27225;SDS011;14732;51.074;3.788;2023-02-28T03:42:29;12.65;;;7.97;;
27225;SDS011;14732;51.074;3.788;2023-02-28T03:44:59;13.48;;;8.52;;
27225;SDS011;14732;51.074;3.788;2023-02-28T03:50:10;15.18;;;8.18;;
27225;SDS011;14732;51.074;3.788;2023-02-28T03:52:47;12.25;;;7.70;;
27225;SDS011;14732;51.074;3.788;2023-02-28T03:55:25;15.10;;;8.45;;
27225;SDS011;14732;51.074;3.788;2023-02-28T04:00:32;14.82;;;8.55;;
27225;SDS011;14732;51.074;3.788;2023-02-28T04:03:02;14.13;;;9.07;;
27225;SDS011;14732;51.074;3.788;2023-02-28T04:05:28;15.25;;;8.63;;
27225;SDS011;14732;51.074;3.788;2023-02-28T04:08:03;11.23;;;7.78;;
27225;SDS011;14732;51.074;3.788;2023-02-28T04:10:30;13.20;;;8.05;;
27225;SDS011;14732;51.074;3.788;2023-02-28T04:12:55;12.68;;;7.80;;
27225;SDS011;14732;51.074;3.788;2023-02-28T04:15:21;12.13;;;7.75;;
27225;SDS011;14732;51.074;3.788;2023-02-28T04:17:48;12.38;;;7.43;;
27225;SDS011;14732;51.074;3.788;2023-02-28T04:20:13;11.25;;;7.10;;
27225;SDS011;14732;51.074;3.788;2023-02-28T04:22:39;11.95;;;7.70;;
27225;SDS011;14732;51.074;3.788;2023-02-28T04:25:05;11.07;;;7.28;;
27225;SDS011;14732;51.074;3.788;2023-02-28T04:27:31;13.38;;;7.78;;
27225;SDS011;14732;51.074;3.788;2023-02-28T04:29:57;12.05;;;7.35;;
27225;SDS011;14732;51.074;3.788;2023-02-28T04:32:22;10.82;;;7.55;;
27225;SDS011;14732;51.074;3.788;2023-02-28T04:34:48;12.90;;;7.50;;
27225;SDS011;14732;51.074;3.788;2023-02-28T04:37:13;12.93;;;7.57;;
27225;SDS011;14732;51.074;3.788;2023-02-28T04:39:39;11.20;;;6.97;;
27225;SDS011;14732;51.074;3.788;2023-02-28T04:42:06;11.13;;;6.65;;
27225;SDS011;14732;51.074;3.788;2023-02-28T04:44:31;13.60;;;7.25;;
27225;SDS011;14732;51.074;3.788;2023-02-28T04:46:57;11.85;;;6.88;;
27225;SDS011;14732;51.074;3.788;2023-02-28T04:49:23;12.77;;;6.38;;
27225;SDS011;14732;51.074;3.788;2023-02-28T04:51:49;9.73;;;6.47;;
27225;SDS011;14732;51.074;3.788;2023-02-28T04:54:15;13.50;;;6.18;;
27225;SDS011;14732;51.074;3.788;2023-02-28T04:56:41;11.88;;;6.68;;
27225;SDS011;14732;51.074;3.788;2023-02-28T04:59:07;12.65;;;6.80;;
27225;SDS011;14732;51.074;3.788;2023-02-28T05:01:33;13.20;;;5.80;;
27225;SDS011;14732;51.074;3.788;2023-02-28T05:04:00;8.30;;;5.93;;
27225;SDS011;14732;51.074;3.788;2023-02-28T05:06:28;10.95;;;6.22;;
27225;SDS011;14732;51.074;3.788;2023-02-28T05:08:55;13.80;;;6.38;;
27225;SDS011;14732;51.074;3.788;2023-02-28T05:11:25;12.18;;;6.28;;
27225;SDS011;14732;51.074;3.788;2023-02-28T05:13:54;10.95;;;6.25;;
27225;SDS011;14732;51.074;3.788;2023-02-28T05:16:20;11.38;;;6.85;;
27225;SDS011;14732;51.074;3.788;2023-02-28T05:18:46;11.30;;;5.78;;
27225;SDS011;14732;51.074;3.788;2023-02-28T05:21:20;9.02;;;5.85;;
27225;SDS011;14732;51.074;3.788;2023-02-28T05:24:01;12.38;;;6.30;;
27225;SDS011;14732;51.074;3.788;2023-02-28T05:26:40;8.88;;;5.90;;
27225;SDS011;14732;51.074;3.788;2023-02-28T05:29:06;11.15;;;6.00;;
27225;SDS011;14732;51.074;3.788;2023-02-28T05:31:33;10.52;;;5.95;;
27225;SDS011;14732;51.074;3.788;2023-02-28T05:33:59;9.52;;;5.68;;
27225;SDS011;14732;51.074;3.788;2023-02-28T05:36:25;11.07;;;6.30;;
27225;SDS011;14732;51.074;3.788;2023-02-28T05:38:51;10.07;;;6.32;;
27225;SDS011;14732;51.074;3.788;2023-02-28T05:41:17;10.10;;;6.40;;
27225;SDS011;14732;51.074;3.788;2023-02-28T05:43:47;11.13;;;6.10;;
27225;SDS011;14732;51.074;3.788;2023-02-28T05:46:13;9.10;;;5.45;;
27225;SDS011;14732;51.074;3.788;2023-02-28T05:48:40;11.63;;;6.25;;
27225;SDS011;14732;51.074;3.788;2023-02-28T05:51:07;12.38;;;6.00;;
27225;SDS011;14732;51.074;3.788;2023-02-28T05:53:33;10.48;;;5.85;;
27225;SDS011;14732;51.074;3.788;2023-02-28T05:55:59;9.10;;;5.43;;
27225;SDS011;14732;51.074;3.788;2023-02-28T05:58:25;8.52;;;5.65;;
27225;SDS011;14732;51.074;3.788;2023-02-28T06:00:55;9.90;;;5.90;;
27225;SDS011;14732;51.074;3.788;2023-02-28T06:03:21;12.70;;;6.30;;
27225;SDS011;14732;51.074;3.788;2023-02-28T06:05:47;9.57;;;6.88;;
27225;SDS011;14732;51.074;3.788;2023-02-28T06:08:13;12.43;;;6.70;;
27225;SDS011;14732;51.074;3.788;2023-02-28T06:10:38;9.98;;;6.82;;
27225;SDS011;14732;51.074;3.788;2023-02-28T06:13:04;12.70;;;6.43;;
27225;SDS011;14732;51.074;3.788;2023-02-28T06:15:30;14.90;;;6.30;;
27225;SDS011;14732;51.074;3.788;2023-02-28T06:17:56;10.20;;;6.57;;
27225;SDS011;14732;51.074;3.788;2023-02-28T06:20:23;14.82;;;6.88;;
27225;SDS011;14732;51.074;3.788;2023-02-28T06:22:51;11.55;;;6.50;;
27225;SDS011;14732;51.074;3.788;2023-02-28T06:25:19;13.18;;;7.13;;
27225;SDS011;14732;51.074;3.788;2023-02-28T06:27:45;12.05;;;7.38;;
27225;SDS011;14732;51.074;3.788;2023-02-28T06:30:11;12.27;;;7.80;;
27225;SDS011;14732;51.074;3.788;2023-02-28T06:32:37;14.18;;;7.35;;
27225;SDS011;14732;51.074;3.788;2023-02-28T06:35:03;12.82;;;7.38;;
27225;SDS011;14732;51.074;3.788;2023-02-28T06:37:30;11.70;;;7.53;;
27225;SDS011;14732;51.074;3.788;2023-02-28T06:39:56;13.27;;;7.05;;
27225;SDS011;14732;51.074;3.788;2023-02-28T06:42:23;11.95;;;7.15;;
27225;SDS011;14732;51.074;3.788;2023-02-28T06:44:54;10.88;;;7.55;;
27225;SDS011;14732;51.074;3.788;2023-02-28T06:47:20;11.73;;;6.88;;
27225;SDS011;14732;51.074;3.788;2023-02-28T06:49:46;11.65;;;7.07;;
27225;SDS011;14732;51.074;3.788;2023-02-28T06:52:12;12.25;;;6.82;;
27225;SDS011;14732;51.074;3.788;2023-02-28T06:54:38;12.35;;;6.57;;
27225;SDS011;14732;51.074;3.788;2023-02-28T06:57:04;12.52;;;5.93;;
27225;SDS011;14732;51.074;3.788;2023-02-28T06:59:29;12.43;;;6.10;;
27225;SDS011;14732;51.074;3.788;2023-02-28T07:01:56;11.52;;;6.70;;
27225;SDS011;14732;51.074;3.788;2023-02-28T07:04:22;9.70;;;6.93;;
27225;SDS011;14732;51.074;3.788;2023-02-28T07:06:48;12.88;;;6.40;;
27225;SDS011;14732;51.074;3.788;2023-02-28T07:09:13;14.55;;;6.32;;
27225;SDS011;14732;51.074;3.788;2023-02-28T07:11:40;12.43;;;6.25;;
27225;SDS011;14732;51.074;3.788;2023-02-28T07:14:07;14.10;;;6.20;;
27225;SDS011;14732;51.074;3.788;2023-02-28T07:16:33;11.52;;;5.93;;
27225;SDS011;14732;51.074;3.788;2023-02-28T07:19:00;11.23;;;6.10;;
27225;SDS011;14732;51.074;3.788;2023-02-28T07:21:25;12.02;;;7.00;;
27225;SDS011;14732;51.074;3.788;2023-02-28T07:23:51;10.98;;;6.10;;
27225;SDS011;14732;51.074;3.788;2023-02-28T07:26:18;10.77;;;5.85;;
27225;SDS011;14732;51.074;3.788;2023-02-28T07:28:45;9.93;;;5.78;;
27225;SDS011;14732;51.074;3.788;2023-02-28T07:31:12;8.95;;;5.72;;
27225;SDS011;14732;51.074;3.788;2023-02-28T07:33:39;6.90;;;4.90;;
27225;SDS011;14732;51.074;3.788;2023-02-28T07:36:06;14.57;;;5.35;;
27225;SDS011;14732;51.074;3.788;2023-02-28T07:38:34;8.68;;;5.22;;
27225;SDS011;14732;51.074;3.788;2023-02-28T07:41:01;10.63;;;5.50;;
27225;SDS011;14732;51.074;3.788;2023-02-28T07:43:31;9.60;;;4.80;;
27225;SDS011;14732;51.074;3.788;2023-02-28T07:46:18;8.73;;;5.20;;
27225;SDS011;14732;51.074;3.788;2023-02-28T07:48:45;7.88;;;4.43;;
27225;SDS011;14732;51.074;3.788;2023-02-28T07:51:10;6.45;;;4.22;;
27225;SDS011;14732;51.074;3.788;2023-02-28T07:53:36;9.82;;;4.80;;
27225;SDS011;14732;51.074;3.788;2023-02-28T07:56:02;5.72;;;3.85;;
27225;SDS011;14732;51.074;3.788;2023-02-28T07:58:29;6.15;;;4.50;;
27225;SDS011;14732;51.074;3.788;2023-02-28T08:00:55;6.82;;;4.25;;
27225;SDS011;14732;51.074;3.788;2023-02-28T08:03:22;5.88;;;3.70;;
27225;SDS011;14732;51.074;3.788;2023-02-28T08:05:48;5.63;;;3.53;;
27225;SDS011;14732;51.074;3.788;2023-02-28T08:08:14;6.80;;;3.67;;
27225;SDS011;14732;51.074;3.788;2023-02-28T08:10:41;5.65;;;4.03;;
27225;SDS011;14732;51.074;3.788;2023-02-28T08:13:08;5.85;;;3.90;;
27225;SDS011;14732;51.074;3.788;2023-02-28T08:15:33;8.30;;;4.32;;
27225;SDS011;14732;51.074;3.788;2023-02-28T08:17:59;6.18;;;3.55;;
27225;SDS011;14732;51.074;3.788;2023-02-28T08:20:25;6.03;;;4.00;;
27225;SDS011;14732;51.074;3.788;2023-02-28T08:22:51;7.97;;;4.22;;
27225;SDS011;14732;51.074;3.788;2023-02-28T08:25:17;7.15;;;3.97;;
27225;SDS011;14732;51.074;3.788;2023-02-28T08:27:43;7.72;;;4.15;;
27225;SDS011;14732;51.074;3.788;2023-02-28T08:30:10;9.35;;;4.05;;
27225;SDS011;14732;51.074;3.788;2023-02-28T08:32:37;7.47;;;4.15;;
27225;SDS011;14732;51.074;3.788;2023-02-28T08:35:03;8.20;;;3.97;;
27225;SDS011;14732;51.074;3.788;2023-02-28T08:37:29;9.90;;;4.20;;
27225;SDS011;14732;51.074;3.788;2023-02-28T08:39:55;7.72;;;4.00;;
27225;SDS011;14732;51.074;3.788;2023-02-28T08:42:21;7.13;;;4.32;;
27225;SDS011;14732;51.074;3.788;2023-02-28T08:44:46;6.28;;;4.45;;
27225;SDS011;14732;51.074;3.788;2023-02-28T08:47:12;7.25;;;4.15;;
27225;SDS011;14732;51.074;3.788;2023-02-28T08:49:38;7.68;;;3.97;;
27225;SDS011;14732;51.074;3.788;2023-02-28T08:52:03;6.72;;;4.05;;
27225;SDS011;14732;51.074;3.788;2023-02-28T08:54:29;11.27;;;4.13;;
27225;SDS011;14732;51.074;3.788;2023-02-28T08:56:56;10.13;;;4.40;;
27225;SDS011;14732;51.074;3.788;2023-02-28T08:59:22;7.88;;;4.10;;
27225;SDS011;14732;51.074;3.788;2023-02-28T09:01:48;7.88;;;4.18;;
27225;SDS011;14732;51.074;3.788;2023-02-28T09:04:13;6.88;;;4.47;;
27225;SDS011;14732;51.074;3.788;2023-02-28T09:06:39;15.55;;;5.45;;
27225;SDS011;14732;51.074;3.788;2023-02-28T09:09:05;10.82;;;4.68;;
27225;SDS011;14732;51.074;3.788;2023-02-28T09:11:32;8.32;;;4.85;;
27225;SDS011;14732;51.074;3.788;2023-02-28T09:13:59;9.18;;;4.30;;
27225;SDS011;14732;51.074;3.788;2023-02-28T09:16:25;7.18;;;4.60;;
27225;SDS011;14732;51.074;3.788;2023-02-28T09:18:51;9.32;;;4.43;;
27225;SDS011;14732;51.074;3.788;2023-02-28T09:21:18;7.57;;;3.90;;
27225;SDS011;14732;51.074;3.788;2023-02-28T09:23:45;6.50;;;3.35;;
27225;SDS011;14732;51.074;3.788;2023-02-28T09:29:04;6.95;;;4.28;;
27225;SDS011;14732;51.074;3.788;2023-02-28T09:31:31;5.47;;;3.40;;
27225;SDS011;14732;51.074;3.788;2023-02-28T09:33:57;5.82;;;3.50;;
27225;SDS011;14732;51.074;3.788;2023-02-28T09:36:24;6.80;;;3.70;;
27225;SDS011;14732;51.074;3.788;2023-02-28T09:38:51;5.82;;;3.25;;
27225;SDS011;14732;51.074;3.788;2023-02-28T09:43:51;7.18;;;3.50;;
27225;SDS011;14732;51.074;3.788;2023-02-28T09:46:28;8.07;;;3.42;;
27225;SDS011;14732;51.074;3.788;2023-02-28T09:48:57;6.13;;;2.97;;
27225;SDS011;14732;51.074;3.788;2023-02-28T09:51:28;6.13;;;3.65;;
27225;SDS011;14732;51.074;3.788;2023-02-28T09:54:13;6.57;;;3.05;;
27225;SDS011;14732;51.074;3.788;2023-02-28T09:56:50;6.13;;;3.38;;
27225;SDS011;14732;51.074;3.788;2023-02-28T10:02:13;6.40;;;3.00;;
27225;SDS011;14732;51.074;3.788;2023-02-28T10:05:17;5.32;;;3.15;;
27225;SDS011;14732;51.074;3.788;2023-02-28T10:08:00;8.05;;;3.00;;
27225;SDS011;14732;51.074;3.788;2023-02-28T10:11:06;5.32;;;2.95;;
27225;SDS011;14732;51.074;3.788;2023-02-28T10:13:53;4.78;;;2.63;;
27225;SDS011;14732;51.074;3.788;2023-02-28T10:16:36;4.63;;;2.70;;
27225;SDS011;14732;51.074;3.788;2023-02-28T10:24:42;5.20;;;2.50;;
27225;SDS011;14732;51.074;3.788;2023-02-28T10:27:13;4.03;;;2.47;;
27225;SDS011;14732;51.074;3.788;2023-02-28T10:29:45;3.55;;;2.10;;
27225;SDS011;14732;51.074;3.788;2023-02-28T10:32:14;8.77;;;2.40;;
27225;SDS011;14732;51.074;3.788;2023-02-28T10:34:42;3.95;;;2.10;;
27225;SDS011;14732;51.074;3.788;2023-02-28T10:37:08;4.03;;;2.40;;
27225;SDS011;14732;51.074;3.788;2023-02-28T10:39:43;5.30;;;2.58;;
27225;SDS011;14732;51.074;3.788;2023-02-28T10:47:48;5.18;;;2.30;;
27225;SDS011;14732;51.074;3.788;2023-02-28T10:53:07;5.80;;;1.75;;
27225;SDS011;14732;51.074;3.788;2023-02-28T10:55:42;6.65;;;2.00;;
27225;SDS011;14732;51.074;3.788;2023-02-28T10:58:21;2.22;;;1.70;;
27225;SDS011;14732;51.074;3.788;2023-02-28T11:00:49;2.55;;;1.60;;
27225;SDS011;14732;51.074;3.788;2023-02-28T11:03:38;3.38;;;1.80;;
27225;SDS011;14732;51.074;3.788;2023-02-28T11:06:11;3.33;;;1.80;;
27225;SDS011;14732;51.074;3.788;2023-02-28T11:11:28;2.67;;;2.20;;
27225;SDS011;14732;51.074;3.788;2023-02-28T11:13:57;5.10;;;2.05;;
27225;SDS011;14732;51.074;3.788;2023-02-28T11:16:35;1.83;;;1.63;;
27225;SDS011;14732;51.074;3.788;2023-02-28T11:19:03;3.65;;;1.90;;
27225;SDS011;14732;51.074;3.788;2023-02-28T11:21:36;4.93;;;2.43;;
27225;SDS011;14732;51.074;3.788;2023-02-28T11:24:12;3.25;;;1.90;;
27225;SDS011;14732;51.074;3.788;2023-02-28T11:26:47;3.38;;;1.95;;
27225;SDS011;14732;51.074;3.788;2023-02-28T11:29:18;6.30;;;2.25;;
27225;SDS011;14732;51.074;3.788;2023-02-28T11:32:06;3.15;;;1.85;;
27225;SDS011;14732;51.074;3.788;2023-02-28T11:34:39;4.72;;;2.00;;
27225;SDS011;14732;51.074;3.788;2023-02-28T11:37:09;4.18;;;2.03;;
27225;SDS011;14732;51.074;3.788;2023-02-28T11:39:43;3.67;;;1.92;;
27225;SDS011;14732;51.074;3.788;2023-02-28T11:42:20;2.33;;;2.13;;
27225;SDS011;14732;51.074;3.788;2023-02-28T11:47:36;3.17;;;1.95;;
27225;SDS011;14732;51.074;3.788;2023-02-28T11:53:00;4.00;;;2.20;;
27225;SDS011;14732;51.074;3.788;2023-02-28T12:04:10;2.35;;;1.60;;
27225;SDS011;14732;51.074;3.788;2023-02-28T12:06:50;2.17;;;1.77;;
27225;SDS011;14732;51.074;3.788;2023-02-28T12:09:40;3.03;;;1.70;;
27225;SDS011;14732;51.074;3.788;2023-02-28T12:12:26;2.58;;;1.50;;
27225;SDS011;14732;51.074;3.788;2023-02-28T12:18:15;3.67;;;1.70;;
27225;SDS011;14732;51.074;3.788;2023-02-28T12:28:49;4.57;;;1.55;;
27225;SDS011;14732;51.074;3.788;2023-02-28T12:31:20;2.42;;;1.55;;
27225;SDS011;14732;51.074;3.788;2023-02-28T12:33:52;1.67;;;1.30;;
27225;SDS011;14732;51.074;3.788;2023-02-28T12:36:22;2.15;;;1.50;;
27225;SDS011;14732;51.074;3.788;2023-02-28T12:38:54;2.92;;;1.70;;
27225;SDS011;14732;51.074;3.788;2023-02-28T12:44:21;3.13;;;1.60;;
27225;SDS011;14732;51.074;3.788;2023-02-28T12:46:58;2.35;;;1.30;;
27225;SDS011;14732;51.074;3.788;2023-02-28T12:49:33;2.10;;;1.48;;
27225;SDS011;14732;51.074;3.788;2023-02-28T12:52:04;1.73;;;1.30;;
27225;SDS011;14732;51.074;3.788;2023-02-28T12:57:28;3.63;;;1.70;;
27225;SDS011;14732;51.074;3.788;2023-02-28T12:59:59;3.13;;;1.52;;
27225;SDS011;14732;51.074;3.788;2023-02-28T13:10:39;4.80;;;1.70;;
27225;SDS011;14732;51.074;3.788;2023-02-28T13:13:14;2.65;;;1.40;;
27225;SDS011;14732;51.074;3.788;2023-02-28T13:15:56;4.70;;;1.30;;
27225;SDS011;14732;51.074;3.788;2023-02-28T13:18:34;1.73;;;1.30;;
27225;SDS011;14732;51.074;3.788;2023-02-28T13:21:29;2.92;;;1.33;;
27225;SDS011;14732;51.074;3.788;2023-02-28T13:23:57;1.77;;;1.27;;
27225;SDS011;14732;51.074;3.788;2023-02-28T13:42:35;2.45;;;1.50;;
27225;SDS011;14732;51.074;3.788;2023-02-28T14:09:27;1.83;;;1.60;;
27225;SDS011;14732;51.074;3.788;2023-02-28T14:15:25;2.42;;;1.50;;
27225;SDS011;14732;51.074;3.788;2023-02-28T14:17:55;3.13;;;1.88;;
27225;SDS011;14732;51.074;3.788;2023-02-28T14:20:24;3.38;;;1.90;;
27225;SDS011;14732;51.074;3.788;2023-02-28T14:29:04;2.33;;;1.90;;
27225;SDS011;14732;51.074;3.788;2023-02-28T14:34:37;2.72;;;1.80;;
27225;SDS011;14732;51.074;3.788;2023-02-28T14:37:29;2.25;;;1.90;;
27225;SDS011;14732;51.074;3.788;2023-02-28T14:39:58;3.22;;;2.03;;
27225;SDS011;14732;51.074;3.788;2023-02-28T14:42:32;3.20;;;2.05;;
27225;SDS011;14732;51.074;3.788;2023-02-28T14:45:00;3.03;;;2.15;;
27225;SDS011;14732;51.074;3.788;2023-02-28T14:47:27;2.55;;;2.08;;
27225;SDS011;14732;51.074;3.788;2023-02-28T14:49:56;3.13;;;2.00;;
27225;SDS011;14732;51.074;3.788;2023-02-28T14:52:24;2.20;;;1.88;;
27225;SDS011;14732;51.074;3.788;2023-02-28T14:55:02;2.58;;;2.35;;
27225;SDS011;14732;51.074;3.788;2023-02-28T14:57:39;3.70;;;2.22;;
27225;SDS011;14732;51.074;3.788;2023-02-28T15:02:45;6.63;;;2.30;;
27225;SDS011;14732;51.074;3.788;2023-02-28T15:07:43;3.70;;;2.00;;
27225;SDS011;14732;51.074;3.788;2023-02-28T15:10:19;2.50;;;1.92;;
27225;SDS011;14732;51.074;3.788;2023-02-28T15:15:21;4.55;;;2.67;;
27225;SDS011;14732;51.074;3.788;2023-02-28T15:17:51;2.85;;;2.15;;
27225;SDS011;14732;51.074;3.788;2023-02-28T15:22:47;4.25;;;2.58;;
27225;SDS011;14732;51.074;3.788;2023-02-28T15:25:18;2.80;;;2.00;;
27225;SDS011;14732;51.074;3.788;2023-02-28T15:27:46;3.53;;;2.58;;
27225;SDS011;14732;51.074;3.788;2023-02-28T15:30:22;3.85;;;2.40;;
27225;SDS011;14732;51.074;3.788;2023-02-28T15:35:36;6.20;;;2.95;;
27225;SDS011;14732;51.074;3.788;2023-02-28T15:38:24;4.18;;;2.70;;
27225;SDS011;14732;51.074;3.788;2023-02-28T15:40:55;2.72;;;2.20;;
27225;SDS011;14732;51.074;3.788;2023-02-28T15:45:56;4.20;;;2.60;;
27225;SDS011;14732;51.074;3.788;2023-02-28T15:48:27;3.25;;;2.40;;
27225;SDS011;14732;51.074;3.788;2023-02-28T15:51:00;3.17;;;2.30;;
27225;SDS011;14732;51.074;3.788;2023-02-28T15:53:38;2.80;;;2.10;;
27225;SDS011;14732;51.074;3.788;2023-02-28T15:56:33;4.50;;;2.70;;
27225;SDS011;14732;51.074;3.788;2023-02-28T15:59:03;3.08;;;2.28;;
27225;SDS011;14732;51.074;3.788;2023-02-28T16:01:33;3.85;;;2.50;;
27225;SDS011;14732;51.074;3.788;2023-02-28T16:04:01;4.22;;;2.33;;
27225;SDS011;14732;51.074;3.788;2023-02-28T16:06:38;4.60;;;2.90;;
27225;SDS011;14732;51.074;3.788;2023-02-28T16:09:10;3.45;;;2.45;;
27225;SDS011;14732;51.074;3.788;2023-02-28T16:11:39;4.22;;;2.75;;
27225;SDS011;14732;51.074;3.788;2023-02-28T16:14:11;4.55;;;2.28;;
27225;SDS011;14732;51.074;3.788;2023-02-28T16:16:41;3.78;;;2.33;;
27225;SDS011;14732;51.074;3.788;2023-02-28T16:19:12;6.93;;;2.70;;
27225;SDS011;14732;51.074;3.788;2023-02-28T16:21:38;3.90;;;2.30;;
27225;SDS011;14732;51.074;3.788;2023-02-28T16:24:04;3.38;;;2.72;;
27225;SDS011;14732;51.074;3.788;2023-02-28T16:26:30;3.97;;;2.90;;
27225;SDS011;14732;51.074;3.788;2023-02-28T16:28:59;4.03;;;2.58;;
27225;SDS011;14732;51.074;3.788;2023-02-28T16:31:25;4.05;;;3.05;;
27225;SDS011;14732;51.074;3.788;2023-02-28T16:33:51;3.97;;;2.65;;
27225;SDS011;14732;51.074;3.788;2023-02-28T16:36:18;3.38;;;2.40;;
27225;SDS011;14732;51.074;3.788;2023-02-28T16:38:45;4.70;;;2.67;;
27225;SDS011;14732;51.074;3.788;2023-02-28T16:41:16;3.53;;;2.55;;
27225;SDS011;14732;51.074;3.788;2023-02-28T16:43:46;4.40;;;2.80;;
27225;SDS011;14732;51.074;3.788;2023-02-28T16:46:14;3.83;;;2.42;;
27225;SDS011;14732;51.074;3.788;2023-02-28T16:48:41;5.07;;;2.53;;
27225;SDS011;14732;51.074;3.788;2023-02-28T16:51:12;5.90;;;3.10;;
27225;SDS011;14732;51.074;3.788;2023-02-28T16:53:39;5.18;;;3.08;;
27225;SDS011;14732;51.074;3.788;2023-02-28T16:56:06;6.65;;;3.80;;
27225;SDS011;14732;51.074;3.788;2023-02-28T16:58:35;4.00;;;2.80;;
27225;SDS011;14732;51.074;3.788;2023-02-28T17:01:02;5.88;;;2.72;;
27225;SDS011;14732;51.074;3.788;2023-02-28T17:03:28;4.38;;;2.80;;
27225;SDS011;14732;51.074;3.788;2023-02-28T17:05:54;4.28;;;2.80;;
27225;SDS011;14732;51.074;3.788;2023-02-28T17:08:20;3.90;;;2.90;;
27225;SDS011;14732;51.074;3.788;2023-02-28T17:10:46;6.88;;;3.20;;
27225;SDS011;14732;51.074;3.788;2023-02-28T17:13:11;4.65;;;3.47;;
27225;SDS011;14732;51.074;3.788;2023-02-28T17:15:37;4.25;;;3.08;;
27225;SDS011;14732;51.074;3.788;2023-02-28T17:18:04;5.75;;;3.50;;
27225;SDS011;14732;51.074;3.788;2023-02-28T17:20:30;4.78;;;3.15;;
27225;SDS011;14732;51.074;3.788;2023-02-28T17:22:56;4.18;;;3.25;;
27225;SDS011;14732;51.074;3.788;2023-02-28T17:25:22;7.22;;;2.92;;
27225;SDS011;14732;51.074;3.788;2023-02-28T17:27:49;6.63;;;3.05;;
27225;SDS011;14732;51.074;3.788;2023-02-28T17:32:42;14.65;;;5.53;;
27225;SDS011;14732;51.074;3.788;2023-02-28T17:35:08;31.92;;;10.30;;